sensor_id;sensor_type;location;lat;lon;timestamp;P1;durP1;ratioP1;P2;durP2;ratioP2
8636;SDS011;4356;49.068;8.658;2023-12-07T00:00:27;6.37;;;5.83;;
8636;SDS011;4356;49.068;8.658;2023-12-07T00:02:53;6.87;;;6.20;;
8636;SDS011;4356;49.068;8.658;2023-12-07T00:05:18;7.33;;;6.73;;
8636;SDS011;4356;49.068;8.658;2023-12-07T00:07:43;6.90;;;6.30;;
8636;SDS011;4356;49.068;8.658;2023-12-07T00:10:09;7.03;;;6.30;;
8636;SDS011;4356;49.068;8.658;2023-12-07T00:12:34;6.83;;;6.23;;
8636;SDS011;4356;49.068;8.658;2023-12-07T00:15:00;6.87;;;6.27;;
8636;SDS011;4356;49.068;8.658;2023-12-07T00:17:25;6.20;;;5.70;;
8636;SDS011;4356;49.068;8.658;2023-12-07T00:19:51;5.90;;;5.40;;
8636;SDS011;4356;49.068;8.658;2023-12-07T00:22:18;6.33;;;5.87;;
8636;SDS011;4356;49.068;8.658;2023-12-07T00:24:44;5.80;;;5.40;;
8636;SDS011;4356;49.068;8.658;2023-12-07T00:27:10;6.70;;;6.10;;
8636;SDS011;4356;49.068;8.658;2023-12-07T00:29:36;6.40;;;5.80;;
8636;SDS011;4356;49.068;8.658;2023-12-07T00:32:02;6.50;;;6.00;;
8636;SDS011;4356;49.068;8.658;2023-12-07T00:34:28;6.00;;;5.60;;
8636;SDS011;4356;49.068;8.658;2023-12-07T00:36:53;5.90;;;5.33;;
8636;SDS011;4356;49.068;8.658;2023-12-07T00:39:19;6.43;;;5.27;;
8636;SDS011;4356;49.068;8.658;2023-12-07T00:41:44;6.90;;;6.20;;
8636;SDS011;4356;49.068;8.658;2023-12-07T00:44:11;7.03;;;6.33;;
8636;SDS011;4356;49.068;8.658;2023-12-07T00:46:37;6.90;;;6.30;;
8636;SDS011;4356;49.068;8.658;2023-12-07T00:49:02;6.53;;;6.03;;
8636;SDS011;4356;49.068;8.658;2023-12-07T00:51:28;6.73;;;6.17;;
8636;SDS011;4356;49.068;8.658;2023-12-07T00:53:53;7.57;;;6.30;;
8636;SDS011;4356;49.068;8.658;2023-12-07T00:56:18;6.77;;;6.17;;
8636;SDS011;4356;49.068;8.658;2023-12-07T00:58:44;7.03;;;6.43;;
8636;SDS011;4356;49.068;8.658;2023-12-07T01:01:09;6.60;;;5.90;;
8636;SDS011;4356;49.068;8.658;2023-12-07T01:03:34;6.37;;;5.80;;
8636;SDS011;4356;49.068;8.658;2023-12-07T01:06:00;6.47;;;5.87;;
8636;SDS011;4356;49.068;8.658;2023-12-07T01:08:25;5.77;;;5.20;;
8636;SDS011;4356;49.068;8.658;2023-12-07T01:10:50;6.03;;;5.43;;
8636;SDS011;4356;49.068;8.658;2023-12-07T01:13:16;5.60;;;5.20;;
8636;SDS011;4356;49.068;8.658;2023-12-07T01:15:41;5.97;;;5.47;;
8636;SDS011;4356;49.068;8.658;2023-12-07T01:18:07;5.37;;;4.83;;
8636;SDS011;4356;49.068;8.658;2023-12-07T01:20:32;5.37;;;4.97;;
8636;SDS011;4356;49.068;8.658;2023-12-07T01:22:57;7.40;;;5.80;;
8636;SDS011;4356;49.068;8.658;2023-12-07T01:25:23;5.60;;;5.20;;
8636;SDS011;4356;49.068;8.658;2023-12-07T01:27:49;6.63;;;5.37;;
8636;SDS011;4356;49.068;8.658;2023-12-07T01:30:14;5.67;;;5.27;;
8636;SDS011;4356;49.068;8.658;2023-12-07T01:32:40;5.77;;;5.30;;
8636;SDS011;4356;49.068;8.658;2023-12-07T01:35:06;6.17;;;5.67;;
8636;SDS011;4356;49.068;8.658;2023-12-07T01:37:32;6.50;;;5.77;;
8636;SDS011;4356;49.068;8.658;2023-12-07T01:39:57;5.77;;;5.37;;
8636;SDS011;4356;49.068;8.658;2023-12-07T01:42:22;6.77;;;6.07;;
8636;SDS011;4356;49.068;8.658;2023-12-07T01:44:48;7.47;;;5.93;;
8636;SDS011;4356;49.068;8.658;2023-12-07T01:47:13;6.53;;;5.93;;
8636;SDS011;4356;49.068;8.658;2023-12-07T01:49:39;7.17;;;6.33;;
8636;SDS011;4356;49.068;8.658;2023-12-07T01:52:06;5.90;;;5.30;;
8636;SDS011;4356;49.068;8.658;2023-12-07T01:54:32;6.40;;;5.90;;
8636;SDS011;4356;49.068;8.658;2023-12-07T01:56:59;5.83;;;5.33;;
8636;SDS011;4356;49.068;8.658;2023-12-07T01:59:24;5.73;;;5.17;;
8636;SDS011;4356;49.068;8.658;2023-12-07T02:01:50;8.17;;;5.53;;
8636;SDS011;4356;49.068;8.658;2023-12-07T02:04:15;8.83;;;5.60;;
8636;SDS011;4356;49.068;8.658;2023-12-07T02:06:42;5.50;;;5.00;;
8636;SDS011;4356;49.068;8.658;2023-12-07T02:09:07;5.73;;;5.23;;
8636;SDS011;4356;49.068;8.658;2023-12-07T02:11:33;5.33;;;4.93;;
8636;SDS011;4356;49.068;8.658;2023-12-07T02:13:59;5.77;;;5.17;;
8636;SDS011;4356;49.068;8.658;2023-12-07T02:19:19;6.77;;;6.27;;
8636;SDS011;4356;49.068;8.658;2023-12-07T02:22:08;7.10;;;6.40;;
8636;SDS011;4356;49.068;8.658;2023-12-07T02:24:37;5.93;;;5.43;;
8636;SDS011;4356;49.068;8.658;2023-12-07T02:27:10;5.93;;;5.47;;
8636;SDS011;4356;49.068;8.658;2023-12-07T02:29:35;6.23;;;5.53;;
8636;SDS011;4356;49.068;8.658;2023-12-07T02:32:00;5.23;;;4.80;;
8636;SDS011;4356;49.068;8.658;2023-12-07T02:34:26;5.67;;;5.17;;
8636;SDS011;4356;49.068;8.658;2023-12-07T02:36:51;8.37;;;5.80;;
8636;SDS011;4356;49.068;8.658;2023-12-07T02:39:22;5.80;;;5.40;;
8636;SDS011;4356;49.068;8.658;2023-12-07T02:41:49;7.60;;;5.47;;
8636;SDS011;4356;49.068;8.658;2023-12-07T02:44:15;6.17;;;5.73;;
8636;SDS011;4356;49.068;8.658;2023-12-07T02:46:41;6.43;;;5.60;;
8636;SDS011;4356;49.068;8.658;2023-12-07T02:49:06;9.67;;;5.30;;
8636;SDS011;4356;49.068;8.658;2023-12-07T02:51:32;5.33;;;4.93;;
8636;SDS011;4356;49.068;8.658;2023-12-07T02:53:57;4.87;;;4.47;;
8636;SDS011;4356;49.068;8.658;2023-12-07T02:56:23;4.83;;;4.53;;
8636;SDS011;4356;49.068;8.658;2023-12-07T02:58:48;4.63;;;4.03;;
8636;SDS011;4356;49.068;8.658;2023-12-07T03:01:13;4.90;;;4.03;;
8636;SDS011;4356;49.068;8.658;2023-12-07T03:03:39;4.67;;;4.33;;
8636;SDS011;4356;49.068;8.658;2023-12-07T03:06:07;4.50;;;4.20;;
8636;SDS011;4356;49.068;8.658;2023-12-07T03:08:32;4.97;;;4.00;;
8636;SDS011;4356;49.068;8.658;2023-12-07T03:10:57;5.00;;;4.60;;
8636;SDS011;4356;49.068;8.658;2023-12-07T03:13:23;6.47;;;4.43;;
8636;SDS011;4356;49.068;8.658;2023-12-07T03:15:48;4.57;;;4.10;;
8636;SDS011;4356;49.068;8.658;2023-12-07T03:18:14;5.33;;;4.40;;
8636;SDS011;4356;49.068;8.658;2023-12-07T03:20:39;4.13;;;3.73;;
8636;SDS011;4356;49.068;8.658;2023-12-07T03:23:04;4.57;;;4.27;;
8636;SDS011;4356;49.068;8.658;2023-12-07T03:25:30;4.73;;;4.27;;
8636;SDS011;4356;49.068;8.658;2023-12-07T03:27:56;5.13;;;4.73;;
8636;SDS011;4356;49.068;8.658;2023-12-07T03:30:21;4.60;;;4.23;;
8636;SDS011;4356;49.068;8.658;2023-12-07T03:32:46;4.73;;;4.33;;
8636;SDS011;4356;49.068;8.658;2023-12-07T03:35:12;4.80;;;4.40;;
8636;SDS011;4356;49.068;8.658;2023-12-07T03:37:37;7.77;;;4.70;;
8636;SDS011;4356;49.068;8.658;2023-12-07T03:40:02;5.00;;;4.53;;
8636;SDS011;4356;49.068;8.658;2023-12-07T03:42:30;4.80;;;4.50;;
8636;SDS011;4356;49.068;8.658;2023-12-07T03:44:55;4.80;;;4.40;;
8636;SDS011;4356;49.068;8.658;2023-12-07T03:47:20;5.93;;;4.30;;
8636;SDS011;4356;49.068;8.658;2023-12-07T03:49:46;4.93;;;4.40;;
8636;SDS011;4356;49.068;8.658;2023-12-07T03:52:11;4.70;;;4.40;;
8636;SDS011;4356;49.068;8.658;2023-12-07T03:54:37;4.33;;;4.03;;
8636;SDS011;4356;49.068;8.658;2023-12-07T03:57:02;4.50;;;4.20;;
8636;SDS011;4356;49.068;8.658;2023-12-07T03:59:28;4.77;;;4.37;;
8636;SDS011;4356;49.068;8.658;2023-12-07T04:01:53;4.10;;;3.87;;
8636;SDS011;4356;49.068;8.658;2023-12-07T04:04:19;4.50;;;4.20;;
8636;SDS011;4356;49.068;8.658;2023-12-07T04:06:44;4.50;;;4.20;;
8636;SDS011;4356;49.068;8.658;2023-12-07T04:09:10;4.70;;;4.20;;
8636;SDS011;4356;49.068;8.658;2023-12-07T04:11:35;4.60;;;4.20;;
8636;SDS011;4356;49.068;8.658;2023-12-07T04:14:00;4.83;;;4.43;;
8636;SDS011;4356;49.068;8.658;2023-12-07T04:16:26;4.67;;;4.30;;
8636;SDS011;4356;49.068;8.658;2023-12-07T04:18:51;4.73;;;4.33;;
8636;SDS011;4356;49.068;8.658;2023-12-07T04:21:17;4.57;;;4.23;;
8636;SDS011;4356;49.068;8.658;2023-12-07T04:23:42;4.90;;;4.50;;
8636;SDS011;4356;49.068;8.658;2023-12-07T04:26:08;4.40;;;4.10;;
8636;SDS011;4356;49.068;8.658;2023-12-07T04:28:33;4.40;;;4.10;;
8636;SDS011;4356;49.068;8.658;2023-12-07T04:30:58;4.80;;;4.43;;
8636;SDS011;4356;49.068;8.658;2023-12-07T04:33:24;5.10;;;4.60;;
8636;SDS011;4356;49.068;8.658;2023-12-07T04:35:49;4.13;;;3.87;;
8636;SDS011;4356;49.068;8.658;2023-12-07T04:38:14;4.80;;;4.50;;
8636;SDS011;4356;49.068;8.658;2023-12-07T04:40:40;4.63;;;4.23;;
8636;SDS011;4356;49.068;8.658;2023-12-07T04:43:06;4.33;;;4.03;;
8636;SDS011;4356;49.068;8.658;2023-12-07T04:45:32;6.07;;;4.80;;
8636;SDS011;4356;49.068;8.658;2023-12-07T04:47:57;5.97;;;4.67;;
8636;SDS011;4356;49.068;8.658;2023-12-07T04:50:23;5.83;;;4.67;;
8636;SDS011;4356;49.068;8.658;2023-12-07T04:52:48;5.33;;;4.93;;
8636;SDS011;4356;49.068;8.658;2023-12-07T04:55:14;4.87;;;4.50;;
8636;SDS011;4356;49.068;8.658;2023-12-07T04:57:41;4.77;;;4.37;;
8636;SDS011;4356;49.068;8.658;2023-12-07T05:00:06;6.40;;;4.50;;
8636;SDS011;4356;49.068;8.658;2023-12-07T05:02:32;4.30;;;4.00;;
8636;SDS011;4356;49.068;8.658;2023-12-07T05:04:58;4.37;;;4.10;;
8636;SDS011;4356;49.068;8.658;2023-12-07T05:07:23;4.47;;;4.17;;
8636;SDS011;4356;49.068;8.658;2023-12-07T05:09:49;4.93;;;4.50;;
8636;SDS011;4356;49.068;8.658;2023-12-07T05:12:16;5.00;;;4.60;;
8636;SDS011;4356;49.068;8.658;2023-12-07T05:14:41;4.80;;;4.40;;
8636;SDS011;4356;49.068;8.658;2023-12-07T05:17:07;4.70;;;4.30;;
8636;SDS011;4356;49.068;8.658;2023-12-07T05:19:32;6.33;;;3.90;;
8636;SDS011;4356;49.068;8.658;2023-12-07T05:21:57;4.53;;;4.17;;
8636;SDS011;4356;49.068;8.658;2023-12-07T05:24:23;4.60;;;4.20;;
8636;SDS011;4356;49.068;8.658;2023-12-07T05:26:48;5.43;;;4.93;;
8636;SDS011;4356;49.068;8.658;2023-12-07T05:29:14;6.63;;;5.07;;
8636;SDS011;4356;49.068;8.658;2023-12-07T05:31:40;5.97;;;5.47;;
8636;SDS011;4356;49.068;8.658;2023-12-07T05:34:07;5.27;;;4.90;;
8636;SDS011;4356;49.068;8.658;2023-12-07T05:36:32;5.63;;;5.13;;
8636;SDS011;4356;49.068;8.658;2023-12-07T05:38:58;5.90;;;5.13;;
8636;SDS011;4356;49.068;8.658;2023-12-07T05:41:24;6.00;;;5.60;;
8636;SDS011;4356;49.068;8.658;2023-12-07T05:43:50;6.13;;;5.63;;
8636;SDS011;4356;49.068;8.658;2023-12-07T05:46:16;6.50;;;5.90;;
8636;SDS011;4356;49.068;8.658;2023-12-07T05:48:41;5.97;;;5.47;;
8636;SDS011;4356;49.068;8.658;2023-12-07T05:51:16;6.20;;;5.70;;
8636;SDS011;4356;49.068;8.658;2023-12-07T05:53:42;5.40;;;5.00;;
8636;SDS011;4356;49.068;8.658;2023-12-07T05:56:08;6.10;;;5.70;;
8636;SDS011;4356;49.068;8.658;2023-12-07T05:58:34;5.97;;;5.47;;
8636;SDS011;4356;49.068;8.658;2023-12-07T06:01:00;5.40;;;5.03;;
8636;SDS011;4356;49.068;8.658;2023-12-07T06:03:26;5.50;;;5.10;;
8636;SDS011;4356;49.068;8.658;2023-12-07T06:05:52;5.17;;;4.77;;
8636;SDS011;4356;49.068;8.658;2023-12-07T06:08:17;5.13;;;4.73;;
8636;SDS011;4356;49.068;8.658;2023-12-07T06:10:43;4.80;;;4.47;;
8636;SDS011;4356;49.068;8.658;2023-12-07T06:13:08;5.60;;;5.10;;
8636;SDS011;4356;49.068;8.658;2023-12-07T06:15:34;5.00;;;4.67;;
8636;SDS011;4356;49.068;8.658;2023-12-07T06:17:59;4.97;;;4.67;;
8636;SDS011;4356;49.068;8.658;2023-12-07T06:20:25;5.17;;;4.73;;
8636;SDS011;4356;49.068;8.658;2023-12-07T06:22:50;6.77;;;5.53;;
8636;SDS011;4356;49.068;8.658;2023-12-07T06:25:15;6.87;;;5.47;;
8636;SDS011;4356;49.068;8.658;2023-12-07T06:27:41;6.23;;;5.73;;
8636;SDS011;4356;49.068;8.658;2023-12-07T06:30:07;6.60;;;5.97;;
8636;SDS011;4356;49.068;8.658;2023-12-07T06:32:32;8.57;;;6.00;;
8636;SDS011;4356;49.068;8.658;2023-12-07T06:34:58;7.03;;;6.40;;
8636;SDS011;4356;49.068;8.658;2023-12-07T06:37:24;6.47;;;5.87;;
8636;SDS011;4356;49.068;8.658;2023-12-07T06:39:50;6.57;;;5.97;;
8636;SDS011;4356;49.068;8.658;2023-12-07T06:42:16;6.43;;;5.80;;
8636;SDS011;4356;49.068;8.658;2023-12-07T06:44:43;8.43;;;6.17;;
8636;SDS011;4356;49.068;8.658;2023-12-07T06:47:08;5.83;;;5.33;;
8636;SDS011;4356;49.068;8.658;2023-12-07T06:49:34;6.33;;;5.83;;
8636;SDS011;4356;49.068;8.658;2023-12-07T06:52:01;10.87;;;5.60;;
8636;SDS011;4356;49.068;8.658;2023-12-07T06:54:26;6.67;;;5.90;;
8636;SDS011;4356;49.068;8.658;2023-12-07T06:56:51;6.43;;;5.83;;
8636;SDS011;4356;49.068;8.658;2023-12-07T06:59:17;6.10;;;5.50;;
8636;SDS011;4356;49.068;8.658;2023-12-07T07:01:42;5.80;;;5.30;;
8636;SDS011;4356;49.068;8.658;2023-12-07T07:04:08;8.50;;;5.97;;
8636;SDS011;4356;49.068;8.658;2023-12-07T07:06:33;6.27;;;5.67;;
8636;SDS011;4356;49.068;8.658;2023-12-07T07:08:59;5.80;;;5.23;;
8636;SDS011;4356;49.068;8.658;2023-12-07T07:11:24;5.73;;;5.33;;
8636;SDS011;4356;49.068;8.658;2023-12-07T07:13:50;5.80;;;5.40;;
8636;SDS011;4356;49.068;8.658;2023-12-07T07:16:16;6.83;;;5.17;;
8636;SDS011;4356;49.068;8.658;2023-12-07T07:18:41;6.73;;;5.60;;
8636;SDS011;4356;49.068;8.658;2023-12-07T07:21:07;6.87;;;6.17;;
8636;SDS011;4356;49.068;8.658;2023-12-07T07:23:33;6.40;;;5.80;;
8636;SDS011;4356;49.068;8.658;2023-12-07T07:25:59;6.37;;;5.73;;
8636;SDS011;4356;49.068;8.658;2023-12-07T07:28:25;6.50;;;5.90;;
8636;SDS011;4356;49.068;8.658;2023-12-07T07:30:50;6.40;;;5.90;;
8636;SDS011;4356;49.068;8.658;2023-12-07T07:33:16;7.90;;;6.13;;
8636;SDS011;4356;49.068;8.658;2023-12-07T07:35:42;7.47;;;6.07;;
8636;SDS011;4356;49.068;8.658;2023-12-07T07:38:07;6.53;;;6.03;;
8636;SDS011;4356;49.068;8.658;2023-12-07T07:40:32;6.97;;;6.27;;
8636;SDS011;4356;49.068;8.658;2023-12-07T07:42:58;7.57;;;6.97;;
8636;SDS011;4356;49.068;8.658;2023-12-07T07:45:23;7.87;;;6.47;;
8636;SDS011;4356;49.068;8.658;2023-12-07T07:47:49;7.37;;;6.43;;
8636;SDS011;4356;49.068;8.658;2023-12-07T07:50:15;6.97;;;6.37;;
8636;SDS011;4356;49.068;8.658;2023-12-07T07:52:41;7.17;;;6.53;;
8636;SDS011;4356;49.068;8.658;2023-12-07T07:55:07;5.87;;;5.47;;
8636;SDS011;4356;49.068;8.658;2023-12-07T07:57:33;7.53;;;6.93;;
8636;SDS011;4356;49.068;8.658;2023-12-07T07:59:58;9.33;;;7.10;;
8636;SDS011;4356;49.068;8.658;2023-12-07T08:02:24;7.47;;;6.83;;
8636;SDS011;4356;49.068;8.658;2023-12-07T08:04:49;7.20;;;6.60;;
8636;SDS011;4356;49.068;8.658;2023-12-07T08:07:16;6.83;;;6.07;;
8636;SDS011;4356;49.068;8.658;2023-12-07T08:09:42;8.97;;;6.60;;
8636;SDS011;4356;49.068;8.658;2023-12-07T08:12:07;7.37;;;6.77;;
8636;SDS011;4356;49.068;8.658;2023-12-07T08:14:35;7.27;;;6.47;;
8636;SDS011;4356;49.068;8.658;2023-12-07T08:17:00;6.60;;;5.90;;
8636;SDS011;4356;49.068;8.658;2023-12-07T08:19:26;7.63;;;6.17;;
8636;SDS011;4356;49.068;8.658;2023-12-07T08:21:51;6.60;;;6.10;;
8636;SDS011;4356;49.068;8.658;2023-12-07T08:24:16;6.70;;;6.00;;
8636;SDS011;4356;49.068;8.658;2023-12-07T08:26:42;7.43;;;6.77;;
8636;SDS011;4356;49.068;8.658;2023-12-07T08:29:08;7.80;;;7.00;;
8636;SDS011;4356;49.068;8.658;2023-12-07T08:31:33;9.03;;;8.13;;
8636;SDS011;4356;49.068;8.658;2023-12-07T08:33:59;9.67;;;8.70;;
8636;SDS011;4356;49.068;8.658;2023-12-07T08:36:25;9.13;;;8.20;;
8636;SDS011;4356;49.068;8.658;2023-12-07T08:38:51;9.33;;;8.43;;
8636;SDS011;4356;49.068;8.658;2023-12-07T08:41:17;8.63;;;7.77;;
8636;SDS011;4356;49.068;8.658;2023-12-07T08:43:42;8.40;;;7.50;;
8636;SDS011;4356;49.068;8.658;2023-12-07T08:46:07;9.40;;;8.27;;
8636;SDS011;4356;49.068;8.658;2023-12-07T08:48:33;8.43;;;7.63;;
8636;SDS011;4356;49.068;8.658;2023-12-07T08:50:59;8.40;;;7.70;;
8636;SDS011;4356;49.068;8.658;2023-12-07T08:53:25;9.17;;;8.10;;
8636;SDS011;4356;49.068;8.658;2023-12-07T08:55:51;10.97;;;8.60;;
8636;SDS011;4356;49.068;8.658;2023-12-07T08:58:17;9.53;;;8.33;;
8636;SDS011;4356;49.068;8.658;2023-12-07T09:00:43;8.90;;;8.10;;
8636;SDS011;4356;49.068;8.658;2023-12-07T09:03:09;8.57;;;7.77;;
8636;SDS011;4356;49.068;8.658;2023-12-07T09:05:34;9.00;;;8.10;;
8636;SDS011;4356;49.068;8.658;2023-12-07T09:08:00;10.10;;;8.37;;
8636;SDS011;4356;49.068;8.658;2023-12-07T09:10:25;8.63;;;7.50;;
8636;SDS011;4356;49.068;8.658;2023-12-07T09:12:51;14.33;;;8.57;;
8636;SDS011;4356;49.068;8.658;2023-12-07T09:15:16;9.60;;;8.73;;
8636;SDS011;4356;49.068;8.658;2023-12-07T09:17:42;9.27;;;8.37;;
8636;SDS011;4356;49.068;8.658;2023-12-07T09:20:08;11.97;;;7.40;;
8636;SDS011;4356;49.068;8.658;2023-12-07T09:22:41;9.37;;;8.37;;
8636;SDS011;4356;49.068;8.658;2023-12-07T09:25:08;7.30;;;6.60;;
8636;SDS011;4356;49.068;8.658;2023-12-07T09:27:34;8.20;;;7.50;;
8636;SDS011;4356;49.068;8.658;2023-12-07T09:30:02;9.37;;;7.00;;
8636;SDS011;4356;49.068;8.658;2023-12-07T09:32:37;9.03;;;7.07;;
8636;SDS011;4356;49.068;8.658;2023-12-07T09:35:07;8.40;;;7.60;;
8636;SDS011;4356;49.068;8.658;2023-12-07T09:37:33;9.07;;;8.17;;
8636;SDS011;4356;49.068;8.658;2023-12-07T09:39:59;9.10;;;8.27;;
8636;SDS011;4356;49.068;8.658;2023-12-07T09:42:26;9.07;;;8.27;;
8636;SDS011;4356;49.068;8.658;2023-12-07T09:44:51;10.07;;;7.93;;
8636;SDS011;4356;49.068;8.658;2023-12-07T09:47:17;8.40;;;6.83;;
8636;SDS011;4356;49.068;8.658;2023-12-07T09:49:43;8.87;;;7.97;;
8636;SDS011;4356;49.068;8.658;2023-12-07T09:52:09;7.97;;;7.03;;
8636;SDS011;4356;49.068;8.658;2023-12-07T09:54:35;8.07;;;7.43;;
8636;SDS011;4356;49.068;8.658;2023-12-07T09:57:05;8.10;;;7.40;;
8636;SDS011;4356;49.068;8.658;2023-12-07T09:59:31;7.57;;;6.77;;
8636;SDS011;4356;49.068;8.658;2023-12-07T10:01:57;7.83;;;7.13;;
8636;SDS011;4356;49.068;8.658;2023-12-07T10:04:22;7.27;;;6.67;;
8636;SDS011;4356;49.068;8.658;2023-12-07T10:06:51;7.73;;;7.00;;
8636;SDS011;4356;49.068;8.658;2023-12-07T10:09:16;7.73;;;7.03;;
8636;SDS011;4356;49.068;8.658;2023-12-07T10:11:44;8.07;;;7.30;;
8636;SDS011;4356;49.068;8.658;2023-12-07T10:14:09;8.57;;;7.77;;
8636;SDS011;4356;49.068;8.658;2023-12-07T10:16:35;6.83;;;6.33;;
8636;SDS011;4356;49.068;8.658;2023-12-07T10:19:34;6.93;;;6.43;;
8636;SDS011;4356;49.068;8.658;2023-12-07T10:21:53;7.20;;;6.70;;
8636;SDS011;4356;49.068;8.658;2023-12-07T10:24:19;9.17;;;6.40;;
8636;SDS011;4356;49.068;8.658;2023-12-07T10:26:47;7.43;;;6.73;;
8636;SDS011;4356;49.068;8.658;2023-12-07T10:29:13;6.60;;;6.00;;
8636;SDS011;4356;49.068;8.658;2023-12-07T10:31:38;7.20;;;6.60;;
8636;SDS011;4356;49.068;8.658;2023-12-07T10:34:04;6.67;;;6.10;;
8636;SDS011;4356;49.068;8.658;2023-12-07T10:36:30;6.70;;;6.10;;
8636;SDS011;4356;49.068;8.658;2023-12-07T10:38:56;6.00;;;5.50;;
8636;SDS011;4356;49.068;8.658;2023-12-07T10:41:22;5.90;;;5.47;;
8636;SDS011;4356;49.068;8.658;2023-12-07T10:43:51;7.73;;;6.93;;
8636;SDS011;4356;49.068;8.658;2023-12-07T10:46:19;7.50;;;6.70;;
8636;SDS011;4356;49.068;8.658;2023-12-07T10:48:51;7.17;;;6.47;;
8636;SDS011;4356;49.068;8.658;2023-12-07T10:54:38;6.23;;;5.73;;
8636;SDS011;4356;49.068;8.658;2023-12-07T10:57:11;9.00;;;6.53;;
8636;SDS011;4356;49.068;8.658;2023-12-07T10:59:39;8.70;;;6.47;;
8636;SDS011;4356;49.068;8.658;2023-12-07T11:02:08;6.20;;;5.63;;
8636;SDS011;4356;49.068;8.658;2023-12-07T11:04:37;5.97;;;5.47;;
8636;SDS011;4356;49.068;8.658;2023-12-07T11:07:06;6.63;;;5.70;;
8636;SDS011;4356;49.068;8.658;2023-12-07T11:09:35;5.73;;;5.20;;
8636;SDS011;4356;49.068;8.658;2023-12-07T11:12:15;6.53;;;5.93;;
8636;SDS011;4356;49.068;8.658;2023-12-07T11:15:01;5.80;;;5.30;;
8636;SDS011;4356;49.068;8.658;2023-12-07T11:17:27;5.57;;;5.03;;
8636;SDS011;4356;49.068;8.658;2023-12-07T11:19:52;8.50;;;7.90;;
8636;SDS011;4356;49.068;8.658;2023-12-07T11:22:18;6.40;;;5.80;;
8636;SDS011;4356;49.068;8.658;2023-12-07T11:24:54;5.97;;;5.57;;
8636;SDS011;4356;49.068;8.658;2023-12-07T11:27:22;5.40;;;4.90;;
8636;SDS011;4356;49.068;8.658;2023-12-07T11:29:49;4.50;;;4.20;;
8636;SDS011;4356;49.068;8.658;2023-12-07T11:32:14;4.47;;;4.17;;
8636;SDS011;4356;49.068;8.658;2023-12-07T11:34:40;4.20;;;3.90;;
8636;SDS011;4356;49.068;8.658;2023-12-07T11:37:07;4.53;;;4.13;;
8636;SDS011;4356;49.068;8.658;2023-12-07T11:39:34;4.77;;;4.37;;
8636;SDS011;4356;49.068;8.658;2023-12-07T11:44:37;5.87;;;5.37;;
8636;SDS011;4356;49.068;8.658;2023-12-07T11:47:04;5.70;;;5.20;;
8636;SDS011;4356;49.068;8.658;2023-12-07T11:49:30;5.97;;;5.37;;
8636;SDS011;4356;49.068;8.658;2023-12-07T11:51:56;5.27;;;4.80;;
8636;SDS011;4356;49.068;8.658;2023-12-07T11:54:26;5.17;;;4.67;;
8636;SDS011;4356;49.068;8.658;2023-12-07T11:56:53;4.90;;;4.47;;
8636;SDS011;4356;49.068;8.658;2023-12-07T11:59:19;4.87;;;4.57;;
8636;SDS011;4356;49.068;8.658;2023-12-07T12:01:48;4.10;;;3.80;;
8636;SDS011;4356;49.068;8.658;2023-12-07T12:04:14;4.00;;;3.70;;
8636;SDS011;4356;49.068;8.658;2023-12-07T12:06:45;4.10;;;3.80;;
8636;SDS011;4356;49.068;8.658;2023-12-07T12:09:14;3.70;;;3.40;;
8636;SDS011;4356;49.068;8.658;2023-12-07T12:11:49;3.50;;;3.33;;
8636;SDS011;4356;49.068;8.658;2023-12-07T12:14:15;4.00;;;3.70;;
8636;SDS011;4356;49.068;8.658;2023-12-07T12:16:42;4.20;;;3.90;;
8636;SDS011;4356;49.068;8.658;2023-12-07T12:19:08;3.50;;;3.30;;
8636;SDS011;4356;49.068;8.658;2023-12-07T12:21:34;5.33;;;4.03;;
8636;SDS011;4356;49.068;8.658;2023-12-07T12:24:00;3.87;;;3.63;;
8636;SDS011;4356;49.068;8.658;2023-12-07T12:26:26;4.07;;;3.50;;
8636;SDS011;4356;49.068;8.658;2023-12-07T12:28:52;3.97;;;3.67;;
8636;SDS011;4356;49.068;8.658;2023-12-07T12:31:18;4.37;;;3.70;;
8636;SDS011;4356;49.068;8.658;2023-12-07T12:33:44;4.50;;;4.10;;
8636;SDS011;4356;49.068;8.658;2023-12-07T12:36:09;4.10;;;3.80;;
8636;SDS011;4356;49.068;8.658;2023-12-07T12:38:38;4.20;;;3.90;;
8636;SDS011;4356;49.068;8.658;2023-12-07T12:41:04;3.50;;;3.30;;
8636;SDS011;4356;49.068;8.658;2023-12-07T12:43:33;4.00;;;3.70;;
8636;SDS011;4356;49.068;8.658;2023-12-07T12:45:59;5.20;;;4.47;;
8636;SDS011;4356;49.068;8.658;2023-12-07T12:48:24;4.40;;;4.00;;
8636;SDS011;4356;49.068;8.658;2023-12-07T12:50:50;4.60;;;4.30;;
8636;SDS011;4356;49.068;8.658;2023-12-07T12:53:16;4.30;;;4.00;;
8636;SDS011;4356;49.068;8.658;2023-12-07T12:55:41;4.07;;;3.67;;
8636;SDS011;4356;49.068;8.658;2023-12-07T12:58:08;4.50;;;4.10;;
8636;SDS011;4356;49.068;8.658;2023-12-07T13:00:37;4.77;;;4.23;;
8636;SDS011;4356;49.068;8.658;2023-12-07T13:03:03;4.90;;;4.50;;
8636;SDS011;4356;49.068;8.658;2023-12-07T13:05:31;4.73;;;4.33;;
8636;SDS011;4356;49.068;8.658;2023-12-07T13:08:00;5.53;;;5.03;;
8636;SDS011;4356;49.068;8.658;2023-12-07T13:10:26;4.40;;;4.10;;
8636;SDS011;4356;49.068;8.658;2023-12-07T13:12:52;6.67;;;5.00;;
8636;SDS011;4356;49.068;8.658;2023-12-07T13:15:17;5.50;;;4.77;;
8636;SDS011;4356;49.068;8.658;2023-12-07T13:17:43;5.90;;;5.40;;
8636;SDS011;4356;49.068;8.658;2023-12-07T13:20:09;4.57;;;4.27;;
8636;SDS011;4356;49.068;8.658;2023-12-07T13:22:36;5.30;;;4.90;;
8636;SDS011;4356;49.068;8.658;2023-12-07T13:25:02;5.00;;;4.70;;
8636;SDS011;4356;49.068;8.658;2023-12-07T13:27:28;5.00;;;4.57;;
8636;SDS011;4356;49.068;8.658;2023-12-07T13:29:53;5.20;;;4.80;;
8636;SDS011;4356;49.068;8.658;2023-12-07T13:32:19;4.97;;;4.57;;
8636;SDS011;4356;49.068;8.658;2023-12-07T13:34:44;5.13;;;4.70;;
8636;SDS011;4356;49.068;8.658;2023-12-07T13:37:09;5.97;;;5.57;;
8636;SDS011;4356;49.068;8.658;2023-12-07T13:39:35;6.43;;;4.97;;
8636;SDS011;4356;49.068;8.658;2023-12-07T13:42:01;4.93;;;4.60;;
8636;SDS011;4356;49.068;8.658;2023-12-07T13:44:27;6.50;;;5.00;;
8636;SDS011;4356;49.068;8.658;2023-12-07T13:46:52;4.80;;;4.50;;
8636;SDS011;4356;49.068;8.658;2023-12-07T13:49:19;5.73;;;5.00;;
8636;SDS011;4356;49.068;8.658;2023-12-07T13:51:45;4.60;;;4.10;;
8636;SDS011;4356;49.068;8.658;2023-12-07T13:54:11;4.83;;;4.53;;
8636;SDS011;4356;49.068;8.658;2023-12-07T13:56:37;5.20;;;4.30;;
8636;SDS011;4356;49.068;8.658;2023-12-07T13:59:02;4.80;;;4.50;;
8636;SDS011;4356;49.068;8.658;2023-12-07T14:01:28;5.00;;;4.50;;
8636;SDS011;4356;49.068;8.658;2023-12-07T14:03:54;4.80;;;4.37;;
8636;SDS011;4356;49.068;8.658;2023-12-07T14:06:24;4.13;;;3.83;;
8636;SDS011;4356;49.068;8.658;2023-12-07T14:08:50;4.17;;;3.87;;
8636;SDS011;4356;49.068;8.658;2023-12-07T14:11:18;4.23;;;3.90;;
8636;SDS011;4356;49.068;8.658;2023-12-07T14:13:44;4.60;;;4.20;;
8636;SDS011;4356;49.068;8.658;2023-12-07T14:16:13;4.60;;;3.80;;
8636;SDS011;4356;49.068;8.658;2023-12-07T14:18:39;4.57;;;4.17;;
8636;SDS011;4356;49.068;8.658;2023-12-07T14:21:05;4.67;;;4.00;;
8636;SDS011;4356;49.068;8.658;2023-12-07T14:23:30;5.40;;;3.90;;
8636;SDS011;4356;49.068;8.658;2023-12-07T14:25:56;3.60;;;3.40;;
8636;SDS011;4356;49.068;8.658;2023-12-07T14:28:25;3.63;;;3.43;;
8636;SDS011;4356;49.068;8.658;2023-12-07T14:30:53;3.97;;;3.73;;
8636;SDS011;4356;49.068;8.658;2023-12-07T14:33:21;4.10;;;3.80;;
8636;SDS011;4356;49.068;8.658;2023-12-07T14:35:47;5.33;;;3.70;;
8636;SDS011;4356;49.068;8.658;2023-12-07T14:38:14;3.70;;;3.50;;
8636;SDS011;4356;49.068;8.658;2023-12-07T14:40:40;3.77;;;3.50;;
8636;SDS011;4356;49.068;8.658;2023-12-07T14:43:05;3.27;;;3.07;;
8636;SDS011;4356;49.068;8.658;2023-12-07T14:45:30;3.40;;;3.20;;
8636;SDS011;4356;49.068;8.658;2023-12-07T14:47:56;3.60;;;3.30;;
8636;SDS011;4356;49.068;8.658;2023-12-07T14:50:23;4.00;;;3.20;;
8636;SDS011;4356;49.068;8.658;2023-12-07T14:52:48;3.17;;;2.90;;
8636;SDS011;4356;49.068;8.658;2023-12-07T14:55:14;3.40;;;3.10;;
8636;SDS011;4356;49.068;8.658;2023-12-07T14:57:39;3.17;;;2.80;;
8636;SDS011;4356;49.068;8.658;2023-12-07T15:00:05;2.87;;;2.57;;
8636;SDS011;4356;49.068;8.658;2023-12-07T15:02:30;3.47;;;3.27;;
8636;SDS011;4356;49.068;8.658;2023-12-07T15:04:56;3.13;;;2.77;;
8636;SDS011;4356;49.068;8.658;2023-12-07T15:07:21;3.27;;;3.07;;
8636;SDS011;4356;49.068;8.658;2023-12-07T15:09:47;3.23;;;3.03;;
8636;SDS011;4356;49.068;8.658;2023-12-07T15:12:14;3.50;;;3.20;;
8636;SDS011;4356;49.068;8.658;2023-12-07T15:14:41;3.30;;;3.10;;
8636;SDS011;4356;49.068;8.658;2023-12-07T15:17:09;3.30;;;3.10;;